Time;durP1;ratioP1;P1;durP2;ratioP2;P2;SDS_P1;SDS_P2;PMS_P1;PMS_P2;Temp;Humidity;BMP_temperature;BMP_pressure;BME280_temperature;BME280_humidity;BME280_pressure;Samples;Min_cycle;Max_cycle;Signal;HPM_P1;HPM_P2
2023/02/06 00:01:35;;;;;;;;;;;3.60;99.90;;;;;;4995742;28;19916;-67
2023/02/06 00:04:01;;;;;;;;;;;3.70;99.90;;;;;;4994978;28;19917;-68
2023/02/06 00:06:27;;;;;;;;;;;3.90;99.90;;;;;;4994379;28;20011;-77
2023/02/06 00:08:53;;;;;;;;;;;4.00;99.90;;;;;;4993536;28;19954;-67
2023/02/06 00:11:20;;;;;;;;;;;4.10;99.90;;;;;;4990956;28;19986;-68
2023/02/06 00:13:45;;;;;;;;;;;4.10;99.90;;;;;;4990517;28;19926;-67
2023/02/06 00:16:19;;;;;;;;;;;4.10;99.90;;;;;;4994338;28;20851;-68
2023/02/06 00:18:45;;;;;;;;;;;4.00;99.90;;;;;;4993133;28;19923;-66
2023/02/06 00:21:11;;;;;;;;;;;3.90;99.90;;;;;;4993853;28;19916;-68
2023/02/06 00:23:36;;;;;;;;;;;3.80;99.90;;;;;;4991289;28;19946;-66
2023/02/06 00:26:02;;;;;;;;;;;3.70;99.90;;;;;;4992936;28;19917;-74
2023/02/06 00:28:28;;;;;;;;;;;3.80;99.90;;;;;;4993955;28;19916;-66
2023/02/06 00:30:54;;;;;;;;;;;3.60;99.90;;;;;;4993860;28;19920;-76
2023/02/06 00:33:19;;;;;;;;;;;3.60;99.90;;;;;;4993842;28;19978;-66
2023/02/06 00:35:45;;;;;;;;;;;3.60;99.90;;;;;;4993154;28;19941;-78
2023/02/06 00:38:11;;;;;;;;;;;3.60;99.90;;;;;;4994856;28;19916;-68
2023/02/06 00:40:37;;;;;;;;;;;3.60;99.90;;;;;;4994714;28;19960;-67
2023/02/06 00:43:03;;;;;;;;;;;3.70;99.90;;;;;;4991432;28;19916;-68
2023/02/06 00:45:28;;;;;;;;;;;3.70;99.90;;;;;;4993330;28;19917;-67
2023/02/06 00:47:54;;;;;;;;;;;3.80;99.90;;;;;;4992968;28;19952;-68
2023/02/06 00:50:20;;;;;;;;;;;3.80;99.90;;;;;;4994773;28;21117;-67
2023/02/06 00:52:46;;;;;;;;;;;4.00;99.90;;;;;;4990943;28;20037;-68
2023/02/06 00:55:11;;;;;;;;;;;4.10;99.90;;;;;;4992957;28;20054;-78
2023/02/06 00:57:37;;;;;;;;;;;4.00;99.90;;;;;;4993949;28;19923;-68
2023/02/06 01:00:06;;;;;;;;;;;4.00;99.90;;;;;;4994636;28;19927;-67
2023/02/06 01:02:32;;;;;;;;;;;4.00;99.90;;;;;;4988347;28;19916;-79
2023/02/06 01:04:58;;;;;;;;;;;4.00;99.90;;;;;;4993714;28;19923;-67
2023/02/06 01:07:24;;;;;;;;;;;3.90;99.90;;;;;;4994306;28;20944;-67
2023/02/06 01:09:49;;;;;;;;;;;3.90;99.90;;;;;;4992402;28;19986;-68
2023/02/06 01:12:15;;;;;;;;;;;3.80;99.90;;;;;;4991864;28;19952;-67
2023/02/06 01:14:41;;;;;;;;;;;3.90;99.90;;;;;;4992742;28;19962;-74
2023/02/06 01:17:06;;;;;;;;;;;3.90;99.90;;;;;;4992375;28;20215;-78
2023/02/06 01:19:32;;;;;;;;;;;4.00;99.90;;;;;;4992854;28;19927;-77
2023/02/06 01:21:58;;;;;;;;;;;4.10;99.90;;;;;;4993249;28;21749;-67
2023/02/06 01:24:23;;;;;;;;;;;4.10;99.90;;;;;;4989945;28;24126;-67
2023/02/06 01:26:49;;;;;;;;;;;4.20;99.90;;;;;;4998827;28;21781;-67
2023/02/06 01:29:15;;;;;;;;;;;4.30;99.90;;;;;;4994427;28;20295;-69
2023/02/06 01:31:40;;;;;;;;;;;4.40;99.90;;;;;;4992722;28;19917;-71
2023/02/06 01:34:06;;;;;;;;;;;4.40;99.90;;;;;;4991335;28;19916;-66
2023/02/06 01:36:32;;;;;;;;;;;4.40;99.90;;;;;;4992431;28;20632;-68
2023/02/06 01:38:58;;;;;;;;;;;4.50;99.90;;;;;;4990967;28;20058;-68
2023/02/06 01:41:23;;;;;;;;;;;4.40;99.90;;;;;;4991735;28;19916;-67
2023/02/06 01:44:06;;;;;;;;;;;4.40;99.90;;;;;;4992511;28;19917;-67
2023/02/06 01:46:32;;;;;;;;;;;4.40;99.90;;;;;;4992019;28;19923;-68
2023/02/06 01:48:59;;;;;;;;;;;4.40;99.90;;;;;;4990976;28;19970;-67
2023/02/06 01:51:25;;;;;;;;;;;4.40;99.90;;;;;;4991938;28;19934;-68
2023/02/06 01:53:53;;;;;;;;;;;4.30;99.90;;;;;;4992631;28;19923;-67
2023/02/06 01:56:19;;;;;;;;;;;4.30;99.90;;;;;;4991923;28;19916;-67
2023/02/06 01:58:49;;;;;;;;;;;4.20;99.90;;;;;;4992444;28;19916;-67
2023/02/06 02:01:15;;;;;;;;;;;4.20;99.90;;;;;;4992648;28;23192;-68
2023/02/06 02:03:41;;;;;;;;;;;4.10;99.90;;;;;;4990780;28;19916;-78
2023/02/06 02:06:09;;;;;;;;;;;4.20;99.90;;;;;;4994296;28;19916;-69
2023/02/06 02:08:39;;;;;;;;;;;4.20;99.90;;;;;;4993865;28;19919;-68
2023/02/06 02:11:06;;;;;;;;;;;4.20;99.90;;;;;;4993974;28;19942;-67
2023/02/06 02:13:33;;;;;;;;;;;4.20;99.90;;;;;;4992793;28;20743;-69
2023/02/06 02:16:01;;;;;;;;;;;4.20;99.90;;;;;;4991398;28;20006;-67
2023/02/06 02:18:39;;;;;;;;;;;4.10;99.90;;;;;;4990013;28;19975;-68
2023/02/06 02:21:05;;;;;;;;;;;4.10;99.90;;;;;;4992661;28;20010;-68
2023/02/06 02:23:31;;;;;;;;;;;4.00;99.90;;;;;;4990916;28;19922;-68
2023/02/06 02:26:05;;;;;;;;;;;4.00;99.90;;;;;;4989777;28;19920;-67
2023/02/06 02:28:50;;;;;;;;;;;3.90;99.90;;;;;;4989765;28;19917;-67
2023/02/06 02:31:19;;;;;;;;;;;3.80;99.90;;;;;;4990263;28;20260;-67
2023/02/06 02:33:47;;;;;;;;;;;3.70;99.90;;;;;;4990367;28;19916;-68
2023/02/06 02:36:29;;;;;;;;;;;3.70;99.90;;;;;;4991033;28;19916;-68
2023/02/06 02:39:04;;;;;;;;;;;3.60;99.90;;;;;;4988440;28;19946;-68
2023/02/06 02:41:34;;;;;;;;;;;3.50;99.90;;;;;;4989432;28;23342;-72
2023/02/06 02:44:08;;;;;;;;;;;3.40;99.90;;;;;;4993118;28;20274;-68
2023/02/06 02:46:39;;;;;;;;;;;3.30;99.90;;;;;;4991350;28;20007;-72
2023/02/06 02:49:09;;;;;;;;;;;3.30;99.90;;;;;;4988647;28;19948;-78
2023/02/06 02:51:36;;;;;;;;;;;3.30;99.90;;;;;;4993063;28;19980;-77
2023/02/06 02:54:02;;;;;;;;;;;3.30;99.90;;;;;;4992020;28;19927;-77
2023/02/06 02:56:28;;;;;;;;;;;3.20;99.90;;;;;;4988760;28;19967;-69
2023/02/06 02:58:57;;;;;;;;;;;3.20;99.90;;;;;;4990062;28;19932;-77
2023/02/06 03:01:26;;;;;;;;;;;3.10;99.90;;;;;;4991594;28;20237;-69
2023/02/06 03:03:53;;;;;;;;;;;3.10;99.90;;;;;;4990922;28;19937;-69
2023/02/06 03:06:19;;;;;;;;;;;3.10;99.90;;;;;;4993682;28;19992;-69
2023/02/06 03:09:04;;;;;;;;;;;3.10;99.90;;;;;;4991113;28;19981;-78
2023/02/06 03:11:30;;;;;;;;;;;3.10;99.90;;;;;;4990757;28;19955;-76
2023/02/06 03:13:59;;;;;;;;;;;3.00;99.90;;;;;;4987808;28;20324;-77
2023/02/06 03:16:28;;;;;;;;;;;3.00;99.90;;;;;;4991349;28;19922;-78
2023/02/06 03:18:57;;;;;;;;;;;3.00;99.90;;;;;;4992572;28;20385;-78
2023/02/06 03:21:24;;;;;;;;;;;2.90;99.90;;;;;;4992287;28;19943;-72
2023/02/06 03:23:52;;;;;;;;;;;2.80;99.90;;;;;;4990594;28;19917;-79
2023/02/06 03:26:19;;;;;;;;;;;2.80;99.90;;;;;;4992161;28;19922;-72
2023/02/06 03:28:49;;;;;;;;;;;2.80;99.90;;;;;;4990171;28;19916;-78
2023/02/06 03:31:18;;;;;;;;;;;2.80;99.90;;;;;;4991841;28;20761;-78
2023/02/06 03:33:46;;;;;;;;;;;2.70;99.90;;;;;;4991767;28;19916;-78
2023/02/06 03:36:15;;;;;;;;;;;2.60;99.90;;;;;;4989129;28;19920;-72
2023/02/06 03:38:45;;;;;;;;;;;2.60;99.90;;;;;;4992041;28;19916;-69
2023/02/06 03:41:12;;;;;;;;;;;2.60;99.90;;;;;;4991332;28;19916;-79
2023/02/06 03:43:37;;;;;;;;;;;2.60;99.90;;;;;;4991500;28;19916;-78
2023/02/06 03:46:05;;;;;;;;;;;2.60;99.90;;;;;;4988287;28;19917;-78
2023/02/06 03:48:30;;;;;;;;;;;2.60;99.90;;;;;;4992297;28;20775;-78
2023/02/06 03:50:57;;;;;;;;;;;2.60;99.90;;;;;;4991452;28;20547;-76
2023/02/06 03:53:24;;;;;;;;;;;2.50;99.90;;;;;;4989753;28;20625;-79
2023/02/06 03:55:53;;;;;;;;;;;2.50;99.90;;;;;;4992611;28;21297;-73
2023/02/06 03:58:19;;;;;;;;;;;2.50;99.90;;;;;;4995099;28;20954;-73
2023/02/06 04:00:45;;;;;;;;;;;2.50;99.90;;;;;;4991911;28;19926;-72
2023/02/06 04:03:11;;;;;;;;;;;2.50;99.90;;;;;;4995518;28;19916;-78
2023/02/06 04:05:37;;;;;;;;;;;2.40;99.90;;;;;;4993440;28;19923;-70
2023/02/06 04:08:03;;;;;;;;;;;2.60;99.90;;;;;;4995600;28;19920;-79
2023/02/06 04:10:29;;;;;;;;;;;2.70;99.90;;;;;;4994506;28;20825;-79
2023/02/06 04:12:54;;;;;;;;;;;2.70;99.90;;;;;;4993123;28;19942;-68
2023/02/06 04:15:20;;;;;;;;;;;2.80;99.90;;;;;;4993879;28;19989;-70
2023/02/06 04:17:46;;;;;;;;;;;2.80;99.90;;;;;;4993824;28;20842;-79
2023/02/06 04:20:12;;;;;;;;;;;2.90;99.90;;;;;;4994149;28;19959;-73
2023/02/06 04:22:38;;;;;;;;;;;3.00;99.90;;;;;;4991782;28;19993;-79
2023/02/06 04:25:04;;;;;;;;;;;3.00;99.90;;;;;;4992763;28;19958;-69
2023/02/06 04:27:30;;;;;;;;;;;2.90;99.90;;;;;;4995413;28;19920;-77
2023/02/06 04:29:55;;;;;;;;;;;2.70;99.90;;;;;;4994367;28;19976;-68
2023/02/06 04:32:21;;;;;;;;;;;2.60;99.90;;;;;;4992442;28;19916;-78
2023/02/06 04:34:47;;;;;;;;;;;2.50;99.90;;;;;;4993012;28;24290;-78
2023/02/06 04:37:12;;;;;;;;;;;2.40;99.90;;;;;;4993579;28;20326;-78
2023/02/06 04:39:38;;;;;;;;;;;2.30;99.90;;;;;;4991464;28;20319;-78
2023/02/06 04:42:04;;;;;;;;;;;2.30;99.90;;;;;;4991283;28;19966;-69
2023/02/06 04:44:31;;;;;;;;;;;2.40;99.90;;;;;;4994210;28;21033;-78
2023/02/06 04:46:56;;;;;;;;;;;2.40;99.90;;;;;;4992902;28;19916;-78
2023/02/06 04:49:22;;;;;;;;;;;2.40;99.90;;;;;;4991598;28;19920;-67
2023/02/06 04:51:48;;;;;;;;;;;2.40;99.90;;;;;;4993191;28;19924;-70
2023/02/06 04:54:16;;;;;;;;;;;2.40;99.90;;;;;;4993450;28;19923;-68
2023/02/06 04:56:42;;;;;;;;;;;2.50;99.90;;;;;;4993835;28;19923;-68
2023/02/06 04:59:08;;;;;;;;;;;2.50;99.90;;;;;;4992273;28;19916;-69
2023/02/06 05:01:33;;;;;;;;;;;2.50;99.90;;;;;;4990897;28;19915;-69
2023/02/06 05:03:59;;;;;;;;;;;2.50;99.90;;;;;;4993692;28;21365;-79
2023/02/06 05:06:25;;;;;;;;;;;2.50;99.90;;;;;;4990888;28;19923;-74
2023/02/06 05:08:51;;;;;;;;;;;2.40;99.90;;;;;;4992706;28;19923;-68
2023/02/06 05:11:16;;;;;;;;;;;2.40;99.90;;;;;;4992412;28;19919;-68
2023/02/06 05:13:42;;;;;;;;;;;2.30;99.90;;;;;;4991574;28;20431;-75
2023/02/06 05:16:09;;;;;;;;;;;2.40;99.90;;;;;;4990829;28;23613;-78
2023/02/06 05:18:35;;;;;;;;;;;2.30;99.90;;;;;;4991044;28;19923;-69
2023/02/06 05:21:01;;;;;;;;;;;2.30;99.90;;;;;;4991186;28;20019;-78
2023/02/06 05:23:26;;;;;;;;;;;2.30;99.90;;;;;;4990097;28;20632;-69
2023/02/06 05:25:52;;;;;;;;;;;2.20;99.90;;;;;;4990629;28;19923;-68
2023/02/06 05:28:18;;;;;;;;;;;2.20;99.90;;;;;;4989967;28;20320;-80
2023/02/06 05:30:44;;;;;;;;;;;2.20;99.90;;;;;;4989159;28;19978;-67
2023/02/06 05:33:09;;;;;;;;;;;2.40;99.90;;;;;;4990225;28;23615;-69
2023/02/06 05:35:36;;;;;;;;;;;2.50;99.90;;;;;;4989061;28;20026;-73
2023/02/06 05:38:02;;;;;;;;;;;2.60;99.90;;;;;;4990575;28;20053;-68
2023/02/06 05:40:28;;;;;;;;;;;2.80;99.90;;;;;;4990263;28;19962;-75
2023/02/06 05:42:54;;;;;;;;;;;3.00;99.90;;;;;;4990888;28;19930;-79
2023/02/06 05:45:19;;;;;;;;;;;3.00;99.90;;;;;;4991954;28;19988;-77
2023/02/06 05:47:45;;;;;;;;;;;2.90;99.90;;;;;;4992510;28;19917;-75
2023/02/06 05:50:11;;;;;;;;;;;3.00;99.90;;;;;;4993275;28;19956;-77
2023/02/06 05:52:37;;;;;;;;;;;3.10;99.90;;;;;;4993586;28;19927;-68
2023/02/06 05:55:02;;;;;;;;;;;3.10;99.90;;;;;;4990819;28;21411;-80
2023/02/06 05:57:28;;;;;;;;;;;3.20;99.90;;;;;;4993165;28;20050;-67
2023/02/06 05:59:53;;;;;;;;;;;3.20;99.90;;;;;;4992337;28;23432;-68
2023/02/06 06:02:19;;;;;;;;;;;3.20;99.90;;;;;;4990435;28;23524;-66
2023/02/06 06:04:45;;;;;;;;;;;3.20;99.90;;;;;;4991574;28;20793;-67
2023/02/06 06:07:11;;;;;;;;;;;3.30;99.90;;;;;;4991625;28;19923;-68
2023/02/06 06:09:36;;;;;;;;;;;3.40;99.90;;;;;;4992197;28;19916;-67
2023/02/06 06:12:02;;;;;;;;;;;3.50;99.90;;;;;;4990639;28;19937;-68
2023/02/06 06:14:28;;;;;;;;;;;3.60;99.90;;;;;;4989581;28;23224;-67
2023/02/06 06:16:54;;;;;;;;;;;3.60;99.90;;;;;;4992338;28;19916;-68
2023/02/06 06:19:19;;;;;;;;;;;3.50;99.90;;;;;;4991938;28;19966;-67
2023/02/06 06:21:45;;;;;;;;;;;3.50;99.90;;;;;;4990584;28;19916;-67
2023/02/06 06:24:11;;;;;;;;;;;3.50;99.90;;;;;;4992335;28;20219;-68
2023/02/06 06:26:38;;;;;;;;;;;3.40;99.90;;;;;;4990923;28;20235;-67
2023/02/06 06:29:04;;;;;;;;;;;3.40;99.90;;;;;;4990185;28;19916;-78
2023/02/06 06:31:29;;;;;;;;;;;3.40;99.90;;;;;;4989937;28;20804;-69
2023/02/06 06:33:55;;;;;;;;;;;3.30;99.90;;;;;;4992211;28;19925;-68
2023/02/06 06:36:21;;;;;;;;;;;3.20;99.90;;;;;;4992583;28;19919;-76
2023/02/06 06:38:46;;;;;;;;;;;3.20;99.90;;;;;;4989657;28;19927;-67
2023/02/06 06:41:12;;;;;;;;;;;3.10;99.90;;;;;;4989128;28;19916;-68
2023/02/06 06:43:38;;;;;;;;;;;3.10;99.90;;;;;;4992207;28;23779;-68
2023/02/06 06:46:04;;;;;;;;;;;3.00;99.90;;;;;;4994136;28;21663;-68
2023/02/06 06:48:30;;;;;;;;;;;3.00;99.90;;;;;;4987952;28;19968;-68
2023/02/06 06:50:56;;;;;;;;;;;3.00;99.90;;;;;;4988984;28;20264;-68
2023/02/06 06:53:21;;;;;;;;;;;3.00;99.90;;;;;;4988731;28;19963;-74
2023/02/06 06:55:47;;;;;;;;;;;3.00;99.90;;;;;;4986295;28;19916;-69
2023/02/06 06:58:13;;;;;;;;;;;3.00;99.90;;;;;;4990733;28;19916;-68
2023/02/06 07:00:39;;;;;;;;;;;3.00;99.90;;;;;;4990517;28;19916;-68
2023/02/06 07:03:04;;;;;;;;;;;3.00;99.90;;;;;;4990631;28;20029;-67
2023/02/06 07:05:31;;;;;;;;;;;3.00;99.90;;;;;;4988750;28;20855;-68
2023/02/06 07:07:57;;;;;;;;;;;3.10;99.90;;;;;;4987972;28;19923;-67
2023/02/06 07:10:23;;;;;;;;;;;3.10;99.90;;;;;;4988345;28;19924;-68
2023/02/06 07:12:48;;;;;;;;;;;3.10;99.90;;;;;;4989250;28;19916;-68
2023/02/06 07:15:14;;;;;;;;;;;3.10;99.90;;;;;;4990303;28;19916;-68
2023/02/06 07:17:39;;;;;;;;;;;3.10;99.90;;;;;;4989360;28;19935;-69
2023/02/06 07:20:05;;;;;;;;;;;3.00;99.90;;;;;;4989990;28;20011;-67
2023/02/06 07:22:31;;;;;;;;;;;3.10;99.90;;;;;;4991392;28;20055;-68
2023/02/06 07:24:56;;;;;;;;;;;3.10;99.90;;;;;;4992252;28;19916;-67
2023/02/06 07:27:22;;;;;;;;;;;3.10;99.90;;;;;;4992078;28;19954;-67
2023/02/06 07:29:47;;;;;;;;;;;3.20;99.90;;;;;;4990170;28;19924;-75
2023/02/06 07:32:13;;;;;;;;;;;3.20;99.90;;;;;;4991080;28;19916;-67
2023/02/06 07:34:39;;;;;;;;;;;3.20;99.90;;;;;;4989268;28;20627;-67
2023/02/06 07:37:04;;;;;;;;;;;3.20;99.90;;;;;;4996642;28;20001;-67
2023/02/06 07:39:30;;;;;;;;;;;3.00;99.90;;;;;;4991389;28;21241;-69
2023/02/06 07:41:56;;;;;;;;;;;3.00;99.90;;;;;;4990104;28;20012;-68
2023/02/06 07:44:21;;;;;;;;;;;3.10;99.90;;;;;;4994840;28;20911;-67
2023/02/06 07:46:47;;;;;;;;;;;3.10;99.90;;;;;;4993711;28;19920;-67
2023/02/06 07:49:13;;;;;;;;;;;3.10;99.90;;;;;;4993687;27;19920;-69
2023/02/06 07:51:43;;;;;;;;;;;3.10;99.90;;;;;;4992031;28;20760;-68
2023/02/06 07:54:08;;;;;;;;;;;3.10;99.90;;;;;;5054670;28;19919;-68
2023/02/06 07:56:34;;;;;;;;;;;3.10;99.90;;;;;;5086216;28;19916;-68
2023/02/06 07:59:00;;;;;;;;;;;3.10;99.90;;;;;;5082753;28;19917;-69
2023/02/06 08:01:25;;;;;;;;;;;3.20;99.90;;;;;;5085980;28;19916;-68
2023/02/06 08:03:52;;;;;;;;;;;3.20;99.90;;;;;;5091327;28;19917;-67
2023/02/06 08:06:18;;;;;;;;;;;3.30;99.90;;;;;;5078562;28;19923;-72
2023/02/06 08:08:44;;;;;;;;;;;3.30;99.90;;;;;;5083800;28;19912;-76
2023/02/06 08:11:18;;;;;;;;;;;3.40;99.90;;;;;;5077650;28;20579;-67
2023/02/06 08:13:45;;;;;;;;;;;3.40;99.90;;;;;;5083850;28;19923;-67
2023/02/06 08:16:15;;;;;;;;;;;3.50;99.90;;;;;;5086200;28;19916;-68
2023/02/06 08:18:40;;;;;;;;;;;3.60;99.90;;;;;;5089363;28;19917;-74
2023/02/06 08:21:10;;;;;;;;;;;3.60;99.90;;;;;;5085380;28;19913;-68
2023/02/06 08:23:35;;;;;;;;;;;3.80;99.90;;;;;;5087219;28;19923;-67
2023/02/06 08:26:05;;;;;;;;;;;3.80;99.90;;;;;;5089827;28;19920;-67
2023/02/06 08:28:31;;;;;;;;;;;3.80;99.90;;;;;;5080626;28;19916;-70
2023/02/06 08:30:56;;;;;;;;;;;3.90;99.90;;;;;;5081812;28;19930;-67
2023/02/06 08:33:22;;;;;;;;;;;4.00;99.90;;;;;;5085469;28;19912;-77
2023/02/06 08:35:47;;;;;;;;;;;4.10;99.90;;;;;;5089368;28;19961;-67
2023/02/06 08:38:13;;;;;;;;;;;4.20;99.90;;;;;;5090611;28;20086;-78
2023/02/06 08:40:38;;;;;;;;;;;4.30;99.90;;;;;;5027573;28;19930;-68
2023/02/06 08:43:04;;;;;;;;;;;4.40;99.90;;;;;;4980385;28;19920;-68
2023/02/06 08:45:30;;;;;;;;;;;4.60;99.90;;;;;;4979175;28;19970;-69
2023/02/06 08:47:55;;;;;;;;;;;4.60;99.90;;;;;;4982089;28;21062;-67
2023/02/06 08:50:21;;;;;;;;;;;4.50;99.90;;;;;;4988970;28;20049;-69
2023/02/06 08:52:46;;;;;;;;;;;4.60;99.90;;;;;;4989496;28;20238;-67
2023/02/06 08:55:12;;;;;;;;;;;4.70;99.90;;;;;;4990702;28;20373;-67
2023/02/06 08:57:37;;;;;;;;;;;4.90;99.90;;;;;;4988669;28;19923;-68
2023/02/06 09:00:03;;;;;;;;;;;5.10;99.90;;;;;;5045246;28;19920;-68
2023/02/06 09:02:29;;;;;;;;;;;5.30;99.90;;;;;;5087356;28;19912;-69
2023/02/06 09:04:54;;;;;;;;;;;5.50;99.90;;;;;;5087038;28;20019;-77
2023/02/06 09:07:21;;;;;;;;;;;5.50;99.90;;;;;;5084378;28;19942;-79
2023/02/06 09:09:46;;;;;;;;;;;5.50;99.90;;;;;;5081722;28;20315;-78
2023/02/06 09:12:12;;;;;;;;;;;5.40;99.90;;;;;;5076507;28;19927;-69
2023/02/06 09:14:38;;;;;;;;;;;5.50;99.90;;;;;;5085854;28;19912;-75
2023/02/06 09:17:03;;;;;;;;;;;5.40;99.90;;;;;;5084679;28;19959;-79
2023/02/06 09:19:29;;;;;;;;;;;5.40;99.90;;;;;;5090018;28;19913;-77
2023/02/06 09:21:54;;;;;;;;;;;5.60;99.90;;;;;;4985322;28;19930;-68
2023/02/06 09:24:20;;;;;;;;;;;5.60;99.90;;;;;;4982214;28;19920;-74
2023/02/06 09:26:46;;;;;;;;;;;5.80;99.90;;;;;;4980312;28;20013;-68
2023/02/06 09:29:12;;;;;;;;;;;5.80;99.90;;;;;;4982651;28;19917;-78
2023/02/06 09:31:39;;;;;;;;;;;5.90;99.90;;;;;;4981092;28;19936;-67
2023/02/06 09:34:04;;;;;;;;;;;5.80;99.90;;;;;;4981352;28;20290;-67
2023/02/06 09:36:32;;;;;;;;;;;5.80;99.90;;;;;;4982093;28;19974;-68
2023/02/06 09:38:58;;;;;;;;;;;5.80;99.90;;;;;;4984820;28;21239;-68
2023/02/06 09:41:41;;;;;;;;;;;5.90;99.90;;;;;;4988357;28;20503;-78
2023/02/06 09:44:09;;;;;;;;;;;6.10;99.90;;;;;;4982564;28;20311;-67
2023/02/06 09:46:36;;;;;;;;;;;6.10;99.90;;;;;;4979914;28;19915;-67
2023/02/06 09:49:12;;;;;;;;;;;6.10;99.90;;;;;;4980201;28;19920;-68
2023/02/06 09:52:01;;;;;;;;;;;6.10;99.90;;;;;;4980366;28;19935;-68
2023/02/06 09:54:29;;;;;;;;;;;6.00;99.90;;;;;;4956281;28;20013;-68
2023/02/06 09:57:02;;;;;;;;;;;6.10;99.90;;;;;;4987127;28;22112;-67
2023/02/06 09:59:36;;;;;;;;;;;6.20;99.90;;;;;;4989019;28;20003;-67
2023/02/06 10:02:16;;;;;;;;;;;6.30;99.90;;;;;;4986243;28;19916;-67
2023/02/06 10:04:51;;;;;;;;;;;6.30;99.90;;;;;;5032242;28;20007;-79
2023/02/06 10:07:22;;;;;;;;;;;6.30;99.90;;;;;;5010615;28;19919;-67
2023/02/06 10:10:00;;;;;;;;;;;6.50;99.90;;;;;;4979789;28;19969;-68
2023/02/06 10:12:34;;;;;;;;;;;6.60;99.90;;;;;;4983358;28;19915;-67
2023/02/06 10:15:19;;;;;;;;;;;6.50;99.90;;;;;;4981289;28;19930;-67
2023/02/06 10:17:55;;;;;;;;;;;6.70;99.90;;;;;;4979499;28;19942;-67
2023/02/06 10:20:28;;;;;;;;;;;6.70;99.90;;;;;;4980042;28;20348;-67
2023/02/06 10:22:57;;;;;;;;;;;6.70;99.90;;;;;;4981424;28;21151;-67
2023/02/06 10:25:37;;;;;;;;;;;6.70;99.90;;;;;;4977322;28;19955;-67
2023/02/06 10:28:35;;;;;;;;;;;6.60;99.90;;;;;;4983641;28;20562;-67
2023/02/06 10:31:07;;;;;;;;;;;6.70;99.90;;;;;;4916750;28;20562;-68
2023/02/06 10:33:32;;;;;;;;;;;6.70;99.90;;;;;;4917650;28;19993;-68
2023/02/06 10:36:13;;;;;;;;;;;6.60;99.90;;;;;;4919263;28;19917;-67
2023/02/06 10:38:49;;;;;;;;;;;6.50;99.90;;;;;;4920318;28;19917;-68
2023/02/06 10:41:25;;;;;;;;;;;6.50;99.90;;;;;;4903215;28;19951;-79
2023/02/06 10:44:19;;;;;;;;;;;6.40;99.90;;;;;;4919894;28;23512;-67
2023/02/06 10:46:49;;;;;;;;;;;6.60;99.90;;;;;;4915921;28;20787;-71
2023/02/06 10:49:30;;;;;;;;;;;6.70;99.90;;;;;;4921891;28;19921;-75
2023/02/06 10:51:59;;;;;;;;;;;6.50;99.90;;;;;;4918369;28;19937;-67
2023/02/06 10:54:35;;;;;;;;;;;6.50;99.90;;;;;;4918566;28;19933;-67
2023/02/06 10:57:01;;;;;;;;;;;6.70;99.90;;;;;;4917250;28;19917;-72
2023/02/06 10:59:29;;;;;;;;;;;6.70;99.90;;;;;;4921356;28;19917;-68
2023/02/06 11:02:00;;;;;;;;;;;6.80;99.90;;;;;;4921451;28;19921;-67
2023/02/06 11:04:37;;;;;;;;;;;7.00;99.90;;;;;;4918971;28;19925;-68
2023/02/06 11:07:06;;;;;;;;;;;7.00;99.90;;;;;;4961078;28;21753;-69
2023/02/06 11:09:31;;;;;;;;;;;7.00;99.90;;;;;;4982337;28;19926;-69
2023/02/06 11:11:58;;;;;;;;;;;6.90;99.90;;;;;;4984468;28;21570;-67
2023/02/06 11:14:26;;;;;;;;;;;7.00;99.90;;;;;;4986039;28;20073;-67
2023/02/06 11:16:52;;;;;;;;;;;7.00;99.90;;;;;;4992681;28;20014;-80
2023/02/06 11:19:22;;;;;;;;;;;6.90;99.90;;;;;;4985950;28;19931;-69
2023/02/06 11:21:50;;;;;;;;;;;6.90;99.90;;;;;;4984927;28;19960;-70
2023/02/06 11:24:16;;;;;;;;;;;6.90;99.90;;;;;;4985842;28;20090;-67
2023/02/06 11:26:45;;;;;;;;;;;6.90;99.90;;;;;;4985283;28;20143;-79
2023/02/06 11:29:16;;;;;;;;;;;7.00;99.90;;;;;;4981486;28;20298;-67
2023/02/06 11:31:42;;;;;;;;;;;6.90;99.90;;;;;;4983581;28;19924;-67
2023/02/06 11:34:22;;;;;;;;;;;7.00;99.90;;;;;;4988269;28;19966;-66
2023/02/06 11:37:10;;;;;;;;;;;6.90;99.90;;;;;;4992533;28;20714;-67
2023/02/06 11:39:37;;;;;;;;;;;7.00;99.90;;;;;;4986767;28;19939;-67
2023/02/06 11:42:04;;;;;;;;;;;7.10;99.90;;;;;;4991856;28;19915;-69
2023/02/06 11:44:40;;;;;;;;;;;6.90;99.90;;;;;;5053131;28;19916;-79
2023/02/06 11:47:18;;;;;;;;;;;7.10;99.90;;;;;;5029126;28;19920;-67
2023/02/06 11:49:44;;;;;;;;;;;7.10;99.90;;;;;;4983554;28;20657;-68
2023/02/06 11:52:23;;;;;;;;;;;7.20;99.90;;;;;;4981511;28;20531;-76
2023/02/06 11:54:52;;;;;;;;;;;7.20;99.90;;;;;;4984708;28;21290;-68
2023/02/06 11:57:19;;;;;;;;;;;7.20;99.90;;;;;;4985040;28;20005;-69
2023/02/06 11:59:56;;;;;;;;;;;7.40;99.90;;;;;;4982090;28;20319;-76
2023/02/06 12:02:27;;;;;;;;;;;7.40;99.90;;;;;;4984203;28;19916;-70
2023/02/06 12:05:02;;;;;;;;;;;7.50;99.90;;;;;;4984622;28;19916;-68
2023/02/06 12:07:29;;;;;;;;;;;7.60;99.90;;;;;;4984905;28;20023;-67
2023/02/06 12:09:55;;;;;;;;;;;7.60;99.90;;;;;;4986367;28;19916;-66
2023/02/06 12:12:23;;;;;;;;;;;7.80;99.90;;;;;;4986181;28;19919;-67
2023/02/06 12:15:09;;;;;;;;;;;7.80;99.90;;;;;;4983931;28;19915;-80
2023/02/06 12:17:40;;;;;;;;;;;7.80;99.90;;;;;;5064307;28;19908;-77
2023/02/06 12:20:05;;;;;;;;;;;7.80;99.90;;;;;;5080297;28;19916;-78
2023/02/06 12:22:37;;;;;;;;;;;7.80;99.90;;;;;;5004452;28;19955;-75
2023/02/06 12:25:03;;;;;;;;;;;7.80;99.90;;;;;;4981138;28;20609;-78
2023/02/06 12:27:34;;;;;;;;;;;7.90;99.90;;;;;;4982161;28;19915;-78
2023/02/06 12:30:04;;;;;;;;;;;7.90;99.90;;;;;;4982784;28;19938;-69
2023/02/06 12:32:44;;;;;;;;;;;7.90;99.90;;;;;;4983511;28;19920;-77
2023/02/06 12:35:15;;;;;;;;;;;7.70;99.90;;;;;;4985331;28;20836;-69
2023/02/06 12:37:52;;;;;;;;;;;7.60;99.90;;;;;;4981572;28;20007;-68
2023/02/06 12:40:38;;;;;;;;;;;7.50;99.90;;;;;;4981838;27;19917;-68
2023/02/06 12:43:09;;;;;;;;;;;7.60;99.90;;;;;;4982196;28;21123;-69
2023/02/06 12:45:41;;;;;;;;;;;7.70;99.90;;;;;;4984300;28;21491;-67
2023/02/06 12:48:19;;;;;;;;;;;7.60;99.90;;;;;;4983456;28;19926;-68
2023/02/06 12:50:53;;;;;;;;;;;7.70;99.90;;;;;;4985106;28;19928;-68
2023/02/06 12:53:25;;;;;;;;;;;7.80;99.90;;;;;;4981095;28;20010;-67
2023/02/06 12:55:58;;;;;;;;;;;7.80;99.90;;;;;;4983570;28;19956;-79
2023/02/06 12:58:26;;;;;;;;;;;7.80;99.90;;;;;;4978885;28;20580;-67
2023/02/06 13:01:29;;;;;;;;;;;7.50;99.90;;;;;;4982888;28;19916;-67
2023/02/06 13:03:56;;;;;;;;;;;7.40;99.90;;;;;;4940822;28;20778;-67
2023/02/06 13:06:23;;;;;;;;;;;7.50;99.90;;;;;;4974440;28;19916;-68
2023/02/06 13:08:56;;;;;;;;;;;7.70;99.90;;;;;;4983328;27;19936;-68
2023/02/06 13:11:26;;;;;;;;;;;7.90;99.90;;;;;;4983730;28;19939;-68
2023/02/06 13:13:59;;;;;;;;;;;8.00;99.90;;;;;;4984176;28;20063;-67
2023/02/06 13:16:48;;;;;;;;;;;8.10;99.90;;;;;;5001501;28;19960;-67
2023/02/06 13:19:25;;;;;;;;;;;8.10;99.90;;;;;;4976409;28;20500;-66
2023/02/06 13:22:12;;;;;;;;;;;8.20;99.90;;;;;;4983803;28;22053;-70
2023/02/06 13:24:39;;;;;;;;;;;8.00;99.90;;;;;;4968687;28;23166;-68
2023/02/06 13:27:07;;;;;;;;;;;7.90;99.90;;;;;;4985725;28;20323;-67
2023/02/06 13:29:52;;;;;;;;;;;7.90;99.90;;;;;;4981712;28;21093;-79
2023/02/06 13:32:18;;;;;;;;;;;8.10;99.90;;;;;;4982485;28;21047;-82
2023/02/06 13:34:43;;;;;;;;;;;8.30;99.90;;;;;;4983169;28;20661;-67
2023/02/06 13:37:24;;;;;;;;;;;8.20;99.90;;;;;;4980590;28;19916;-67
2023/02/06 13:40:10;;;;;;;;;;;8.10;99.90;;;;;;4982627;28;19920;-81
2023/02/06 13:42:56;;;;;;;;;;;8.10;99.90;;;;;;4982941;28;19947;-68
2023/02/06 13:45:29;;;;;;;;;;;8.00;99.90;;;;;;4969287;28;19915;-67
2023/02/06 13:48:10;;;;;;;;;;;8.00;99.90;;;;;;4982938;28;19916;-67
2023/02/06 13:50:55;;;;;;;;;;;8.00;99.90;;;;;;4982559;28;20700;-68
2023/02/06 13:53:33;;;;;;;;;;;8.20;99.90;;;;;;4979093;28;19955;-68
2023/02/06 13:56:08;;;;;;;;;;;8.20;99.90;;;;;;4980100;28;20330;-67
2023/02/06 13:58:37;;;;;;;;;;;8.20;99.90;;;;;;4981245;28;21334;-71
2023/02/06 14:01:09;;;;;;;;;;;8.20;99.90;;;;;;4983428;28;20322;-67
2023/02/06 14:03:37;;;;;;;;;;;8.20;99.90;;;;;;4979249;28;19916;-79
2023/02/06 14:06:11;;;;;;;;;;;8.10;99.90;;;;;;4958975;28;19950;-68
2023/02/06 14:08:52;;;;;;;;;;;8.00;99.90;;;;;;4978337;28;20519;-79
2023/02/06 14:11:17;;;;;;;;;;;7.90;99.90;;;;;;4981142;28;19930;-67
2023/02/06 14:14:13;;;;;;;;;;;7.70;99.90;;;;;;4981949;28;20742;-67
2023/02/06 14:17:11;;;;;;;;;;;7.50;99.90;;;;;;4979563;28;19915;-67
2023/02/06 14:19:46;;;;;;;;;;;7.60;99.90;;;;;;4930162;28;19916;-68
2023/02/06 14:22:24;;;;;;;;;;;7.60;99.90;;;;;;4979769;28;19924;-67
2023/02/06 14:25:03;;;;;;;;;;;7.70;99.90;;;;;;4979824;28;19997;-67
2023/02/06 14:27:34;;;;;;;;;;;7.70;99.90;;;;;;4980190;28;19916;-67
2023/02/06 14:30:09;;;;;;;;;;;7.70;99.90;;;;;;4977756;28;19991;-68
2023/02/06 14:32:54;;;;;;;;;;;7.70;99.90;;;;;;4978930;28;20646;-78
2023/02/06 14:35:32;;;;;;;;;;;7.80;99.90;;;;;;4979228;28;19926;-67
2023/02/06 14:38:01;;;;;;;;;;;7.80;99.90;;;;;;4981823;28;20904;-68
2023/02/06 14:40:28;;;;;;;;;;;7.70;99.90;;;;;;4981397;28;20178;-72
2023/02/06 14:42:55;;;;;;;;;;;7.70;99.90;;;;;;4981546;28;20345;-67